Time;durP1;ratioP1;P1;durP2;ratioP2;P2;SDS_P1;SDS_P2;PMS_P1;PMS_P2;Temp;Humidity;BMP_temperature;BMP_pressure;BME280_temperature;BME280_humidity;BME280_pressure;Samples;Min_cycle;Max_cycle;Signal;HPM_P1;HPM_P2
2022/11/05 00:11:13;;;;;;;0.50;0.30;;;;;;;11.97;100.00;99677.31;7391278;19;20025;-83
2022/11/05 00:16:42;;;;;;;0.68;0.25;;;;;;;11.84;100.00;99656.56;7385569;19;20023;-83
2022/11/05 00:19:09;;;;;;;0.40;0.30;;;;;;;11.95;100.00;99654.66;7383759;19;20015;-83
2022/11/05 00:27:08;;;;;;;0.10;0.10;;;;;;;11.66;100.00;99660.38;7386994;19;20047;-82
2022/11/05 00:29:35;;;;;;;0.28;0.17;;;;;;;11.65;100.00;99650.47;7387069;19;20502;-83
2022/11/05 00:32:01;;;;;;;1.55;0.63;;;;;;;11.74;100.00;99647.56;7384293;19;20022;-83
2022/11/05 00:34:27;;;;;;;0.85;0.32;;;;;;;11.68;100.00;99655.13;7385352;19;20018;-84
2022/11/05 00:36:55;;;;;;;0.50;0.22;;;;;;;11.69;100.00;99639.91;7384913;19;20022;-84
2022/11/05 00:39:21;;;;;;;0.20;0.20;;;;;;;11.60;100.00;99642.81;7382711;19;20019;-82
2022/11/05 00:44:58;;;;;;;0.63;0.63;;;;;;;11.54;100.00;99644.00;7383596;19;20014;-83
2022/11/05 00:50:03;;;;;;;0.68;0.40;;;;;;;11.33;100.00;99640.41;7387173;19;20019;-83
2022/11/05 00:55:14;;;;;;;0.32;0.30;;;;;;;11.31;100.00;99654.06;7387298;19;20094;-83
2022/11/05 00:57:40;;;;;;;2.17;1.05;;;;;;;11.25;100.00;99644.84;7384887;19;20382;-83
2022/11/05 01:00:06;;;;;;;0.28;0.28;;;;;;;11.16;100.00;99650.56;7383582;19;20709;-83
2022/11/05 01:02:33;;;;;;;0.32;0.30;;;;;;;11.25;100.00;99653.22;7382134;19;20034;-82
2022/11/05 01:04:59;;;;;;;2.03;0.95;;;;;;;11.35;100.00;99654.63;7384553;19;20014;-83
2022/11/05 01:07:25;;;;;;;2.28;1.08;;;;;;;11.36;100.00;99651.38;7385814;19;20029;-82
2022/11/05 01:09:51;;;;;;;0.63;0.55;;;;;;;11.35;100.00;99660.19;7383004;19;20066;-82
2022/11/05 01:12:17;;;;;;;3.83;0.63;;;;;;;11.33;100.00;99662.72;7385655;19;20050;-82
2022/11/05 01:14:43;;;;;;;6.60;1.40;;;;;;;11.38;100.00;99664.81;7384580;19;20015;-81
2022/11/05 01:17:09;;;;;;;10.95;0.75;;;;;;;11.51;100.00;99662.47;7384410;19;20778;-82
2022/11/05 01:19:35;;;;;;;6.60;0.82;;;;;;;11.50;100.00;99649.75;7384072;19;20588;-82
2022/11/05 01:22:01;;;;;;;1.30;1.23;;;;;;;11.51;100.00;99645.72;7382559;19;20014;-82
2022/11/05 01:24:27;;;;;;;6.38;1.38;;;;;;;11.54;100.00;99639.19;7383833;19;20022;-83
2022/11/05 01:26:53;;;;;;;1.55;0.85;;;;;;;11.55;100.00;99635.13;7383439;19;20022;-82
2022/11/05 01:29:20;;;;;;;1.73;0.50;;;;;;;11.55;100.00;99640.72;7389534;19;20044;-82
2022/11/05 01:31:47;;;;;;;0.68;0.68;;;;;;;11.50;100.00;99635.81;7391959;19;20011;-81
2022/11/05 01:34:13;;;;;;;1.27;0.43;;;;;;;11.44;100.00;99634.97;7390586;19;20010;-83
2022/11/05 01:36:39;;;;;;;0.95;0.88;;;;;;;11.44;100.00;99632.19;7390796;19;20010;-83
2022/11/05 01:39:05;;;;;;;1.02;0.82;;;;;;;11.47;100.00;99634.03;7388924;19;20014;-82
2022/11/05 01:41:31;;;;;;;8.52;1.13;;;;;;;11.35;100.00;99637.91;7392717;19;20090;-82
2022/11/05 01:43:58;;;;;;;0.85;0.73;;;;;;;11.40;100.00;99635.19;7389252;19;20359;-82
2022/11/05 01:46:39;;;;;;;1.35;0.70;;;;;;;11.45;100.00;99639.31;7389678;19;20015;-82
2022/11/05 01:49:16;;;;;;;1.45;0.82;;;;;;;11.50;100.00;99633.03;7390308;19;20043;-82
2022/11/05 01:51:43;;;;;;;0.52;0.52;;;;;;;11.44;100.00;99640.56;7389284;19;20097;-81
2022/11/05 01:54:15;;;;;;;2.15;1.40;;;;;;;11.47;100.00;99634.03;7387608;19;20035;-82
2022/11/05 01:56:52;;;;;;;1.35;0.82;;;;;;;11.49;100.00;99642.66;7385455;19;20082;-81
2022/11/05 01:59:25;;;;;;;1.38;1.27;;;;;;;11.42;100.00;99631.91;7388896;19;20015;-81
2022/11/05 02:01:53;;;;;;;1.27;1.13;;;;;;;11.49;100.00;99630.75;7389413;19;20473;-81
2022/11/05 02:04:40;;;;;;;1.05;1.05;;;;;;;11.40;100.00;99631.63;7388133;19;20426;-81
2022/11/05 02:07:08;;;;;;;4.40;1.35;;;;;;;11.44;100.00;99626.63;7388789;19;20022;-81
2022/11/05 02:09:42;;;;;;;0.70;0.70;;;;;;;11.44;100.00;99624.59;7388799;19;20024;-81
2022/11/05 02:12:11;;;;;;;0.65;0.65;;;;;;;11.54;100.00;99625.25;7388355;19;20555;-81
2022/11/05 02:14:37;;;;;;;20.83;1.85;;;;;;;11.45;100.00;99628.16;7385451;19;20477;-81
2022/11/05 02:17:25;;;;;;;0.82;0.60;;;;;;;11.48;100.00;99629.22;7385222;19;20469;-81
2022/11/05 02:20:26;;;;;;;0.40;0.40;;;;;;;11.26;100.00;99618.53;7385699;19;20021;-81
2022/11/05 02:23:14;;;;;;;0.43;0.40;;;;;;;11.21;100.00;99622.78;7386910;19;20506;-82
2022/11/05 02:25:56;;;;;;;2.38;0.70;;;;;;;11.03;100.00;99622.22;7389973;19;20023;-81
2022/11/05 02:28:59;;;;;;;0.52;0.52;;;;;;;10.99;100.00;99627.25;7388356;19;20369;-82
2022/11/05 02:31:34;;;;;;;2.72;1.85;;;;;;;11.01;100.00;99624.75;7394566;19;20030;-81
2022/11/05 02:34:18;;;;;;;2.20;0.77;;;;;;;10.97;100.00;99619.38;7388137;19;20014;-81
2022/11/05 02:37:11;;;;;;;7.05;0.98;;;;;;;11.01;100.00;99614.38;7387810;19;20011;-81
2022/11/05 02:39:57;;;;;;;9.18;0.98;;;;;;;10.98;100.00;99620.91;7388504;19;20029;-81
2022/11/05 02:42:42;;;;;;;2.58;1.52;;;;;;;11.06;100.00;99613.69;7390158;19;20509;-81
2022/11/05 02:45:30;;;;;;;18.90;1.83;;;;;;;11.01;100.00;99627.53;7388667;19;20035;-82
2022/11/05 02:48:06;;;;;;;1.70;0.80;;;;;;;10.88;100.00;99622.28;7392961;19;20470;-82
2022/11/05 02:50:44;;;;;;;2.28;1.40;;;;;;;10.91;100.00;99621.31;7387371;19;20022;-81
2022/11/05 02:53:52;;;;;;;1.15;0.95;;;;;;;10.92;100.00;99610.91;7387102;19;20585;-81
2022/11/05 02:56:32;;;;;;;2.47;1.15;;;;;;;10.99;100.00;99608.50;7387652;19;20086;-81
2022/11/05 02:58:58;;;;;;;2.83;1.65;;;;;;;10.99;100.00;99605.72;7389163;19;20033;-81
2022/11/05 03:01:25;;;;;;;3.45;1.20;;;;;;;10.93;100.00;99606.91;7392048;19;20022;-81
2022/11/05 03:03:55;;;;;;;2.28;1.05;;;;;;;10.84;100.00;99593.84;7388877;19;20074;-82
2022/11/05 03:06:24;;;;;;;8.88;1.83;;;;;;;10.83;100.00;99605.47;7389373;19;20010;-82
2022/11/05 03:09:05;;;;;;;8.38;1.52;;;;;;;10.66;100.00;99600.41;7388957;19;20034;-81
2022/11/05 03:11:50;;;;;;;2.15;1.48;;;;;;;10.93;100.00;99601.31;7392800;19;20142;-82
2022/11/05 03:14:27;;;;;;;3.20;1.20;;;;;;;11.15;100.00;99596.06;7387762;19;20022;-81
2022/11/05 03:17:00;;;;;;;4.95;1.40;;;;;;;11.26;100.00;99608.13;7388465;19;20086;-82
2022/11/05 03:19:39;;;;;;;8.60;1.35;;;;;;;11.37;100.00;99602.72;7386350;19;20023;-82
2022/11/05 03:22:15;;;;;;;2.15;1.00;;;;;;;11.44;100.00;99598.72;7386859;19;20014;-81
2022/11/05 03:24:50;;;;;;;3.67;0.65;;;;;;;11.51;100.00;99603.13;7387126;19;20429;-82
2022/11/05 03:27:22;;;;;;;7.22;1.60;;;;;;;11.57;100.00;99599.16;7388362;19;20018;-81
2022/11/05 03:29:52;;;;;;;1.02;0.82;;;;;;;11.61;100.00;99587.81;7386610;19;20014;-81
2022/11/05 03:32:21;;;;;;;0.75;0.75;;;;;;;11.67;100.00;99586.66;7386575;19;20014;-81
2022/11/05 03:34:57;;;;;;;1.75;0.80;;;;;;;11.72;100.00;99580.34;7385763;19;20576;-82
2022/11/05 03:37:26;;;;;;;1.98;1.08;;;;;;;11.73;100.00;99579.09;7386800;19;20015;-81
2022/11/05 03:39:57;;;;;;;1.60;0.85;;;;;;;11.65;100.00;99566.78;7387908;19;20015;-81
2022/11/05 03:42:25;;;;;;;;;;;;;;;11.72;100.00;99566.41;7386479;19;20041;-82
2022/11/05 03:44:56;;;;;;;1.33;0.88;;;;;;;11.82;100.00;99567.78;7387686;19;19922;-81
2022/11/05 03:47:29;;;;;;;2.58;1.45;;;;;;;11.88;100.00;99568.63;7389068;19;20018;-81
2022/11/05 03:50:03;;;;;;;0.28;0.28;;;;;;;11.89;100.00;99569.38;7384494;19;20018;-81
2022/11/05 03:52:36;;;;;;;3.28;0.93;;;;;;;12.00;100.00;99559.09;7384819;19;20033;-82
2022/11/05 03:55:02;;;;;;;0.88;0.20;;;;;;;12.08;100.00;99554.59;7388957;19;20025;-82
2022/11/05 03:57:33;;;;;;;4.00;1.10;;;;;;;12.17;100.00;99557.22;7386916;19;20373;-82
2022/11/05 03:59:59;;;;;;;1.30;0.95;;;;;;;12.25;100.00;99551.19;7387835;19;20035;-84
2022/11/05 04:02:26;;;;;;;0.45;0.45;;;;;;;12.29;100.00;99551.75;7385513;19;20358;-83
2022/11/05 04:04:53;;;;;;;0.10;0.10;;;;;;;12.36;100.00;99554.09;7385032;19;20021;-83
2022/11/05 04:18:18;;;;;;;0.57;0.30;;;;;;;12.62;100.00;99540.84;7389370;19;20035;-84
2022/11/05 04:26:14;;;;;;;1.45;0.57;;;;;;;12.72;100.00;99522.63;7386807;19;20031;-83
2022/11/05 04:31:25;;;;;;;0.10;0.10;;;;;;;12.89;100.00;99529.06;7391418;19;20026;-84
2022/11/05 04:33:51;;;;;;;0.30;0.30;;;;;;;12.87;100.00;99523.22;7384952;19;20411;-83
2022/11/05 04:36:18;;;;;;;0.90;0.40;;;;;;;12.83;100.00;99522.69;7385209;19;20010;-84
2022/11/05 04:38:44;;;;;;;0.50;0.20;;;;;;;12.84;100.00;99524.22;7385984;19;20018;-84
2022/11/05 04:41:15;;;;;;;0.10;0.10;;;;;;;12.84;100.00;99518.63;7389040;19;20783;-83
2022/11/05 04:43:42;;;;;;;;;;;;;;;12.88;100.00;99519.94;7388169;19;20043;-83
2022/11/05 04:46:08;;;;;;;0.20;0.20;;;;;;;12.95;100.00;99518.69;7387448;19;19926;-83
2022/11/05 04:48:35;;;;;;;0.85;0.75;;;;;;;12.93;100.00;99513.59;7393200;19;20070;-84
2022/11/05 04:51:02;;;;;;;1.73;0.43;;;;;;;12.94;100.00;99517.16;7389881;19;20085;-84
2022/11/05 04:53:29;;;;;;;0.20;0.20;;;;;;;12.94;100.00;99525.56;7387769;19;20031;-84
2022/11/05 04:56:14;;;;;;;0.45;0.17;;;;;;;13.01;100.00;99515.94;7384823;19;20019;-84
2022/11/05 04:58:40;;;;;;;1.25;0.40;;;;;;;13.00;100.00;99520.75;7384453;19;20635;-82
2022/11/05 05:01:12;;;;;;;2.38;0.65;;;;;;;13.01;100.00;99513.91;7390290;19;20021;-82
2022/11/05 05:03:38;;;;;;;;;;;;;;;13.00;100.00;99520.75;7393875;19;20018;-83
2022/11/05 05:06:04;;;;;;;0.63;0.40;;;;;;;12.99;100.00;99513.66;7394357;19;19953;-83
2022/11/05 05:08:30;;;;;;;0.20;0.20;;;;;;;13.05;100.00;99514.47;7395027;19;20019;-83
2022/11/05 05:11:03;;;;;;;0.10;0.10;;;;;;;13.03;100.00;99511.38;7395941;19;20014;-83
2022/11/05 05:13:29;;;;;;;6.40;0.60;;;;;;;12.98;100.00;99506.50;7395027;19;20022;-84
2022/11/05 05:15:56;;;;;;;0.13;0.03;;;;;;;12.98;100.00;99506.50;7395519;19;20049;-83
2022/11/05 05:18:24;;;;;;;0.10;0.10;;;;;;;13.02;100.00;99506.25;7398264;19;20405;-83
2022/11/05 05:23:35;;;;;;;10.80;0.60;;;;;;;13.04;100.00;99498.91;7395141;19;20014;-84
2022/11/05 05:26:01;;;;;;;0.85;0.30;;;;;;;13.03;100.00;99507.81;7394972;19;20025;-83
2022/11/05 05:28:27;;;;;;;0.90;0.20;;;;;;;13.07;100.00;99505.56;7392584;19;20024;-84
2022/11/05 05:30:58;;;;;;;0.55;0.30;;;;;;;13.05;100.00;99499.72;7392826;19;20425;-84
2022/11/05 05:33:24;;;;;;;0.82;0.45;;;;;;;12.97;100.00;99493.81;7392242;19;20120;-83
2022/11/05 05:35:50;;;;;;;0.35;0.30;;;;;;;12.94;100.00;99495.56;7391778;19;20022;-84
2022/11/05 05:38:16;;;;;;;0.82;0.68;;;;;;;12.96;100.00;99492.28;7393759;19;20014;-84
2022/11/05 05:40:42;;;;;;;2.47;0.52;;;;;;;13.01;100.00;99499.94;7394136;19;20019;-83
2022/11/05 05:43:08;;;;;;;0.90;0.28;;;;;;;13.09;100.00;99495.41;7393853;19;20018;-84
2022/11/05 05:45:35;;;;;;;1.85;0.30;;;;;;;13.13;100.00;99493.13;7393206;19;20378;-83
2022/11/05 05:48:02;;;;;;;0.30;0.30;;;;;;;13.12;100.00;99488.84;7396076;19;20006;-83
2022/11/05 05:50:28;;;;;;;0.55;0.35;;;;;;;13.08;100.00;99482.69;7392696;19;20025;-83
2022/11/05 05:52:55;;;;;;;0.57;0.17;;;;;;;12.96;100.00;99472.72;7392434;19;20026;-83
2022/11/05 05:55:22;;;;;;;0.88;0.20;;;;;;;12.85;100.00;99478.22;7396818;19;20040;-83
2022/11/05 05:57:48;;;;;;;0.13;0.10;;;;;;;12.69;100.00;99484.50;7394446;19;20022;-84
2022/11/05 06:00:14;;;;;;;1.27;0.47;;;;;;;12.67;100.00;99470.25;7392283;19;20018;-84
2022/11/05 06:02:40;;;;;;;0.10;0.10;;;;;;;12.77;100.00;99475.16;7391466;19;20488;-83
2022/11/05 06:05:07;;;;;;;0.50;0.50;;;;;;;12.84;100.00;99479.50;7393812;19;20014;-84
2022/11/05 06:07:33;;;;;;;0.10;0.10;;;;;;;12.88;100.00;99469.63;7393327;19;20022;-84
2022/11/05 06:09:59;;;;;;;0.40;0.40;;;;;;;12.88;100.00;99468.88;7392148;19;20026;-83
2022/11/05 06:12:28;;;;;;;2.80;0.63;;;;;;;12.85;100.00;99458.66;7388141;19;20014;-82
2022/11/05 06:14:54;;;;;;;3.55;0.73;;;;;;;12.92;100.00;99452.63;7385983;19;20456;-81
2022/11/05 06:17:20;;;;;;;1.38;1.20;;;;;;;12.93;100.00;99456.94;7391269;19;20022;-82
2022/11/05 06:19:46;;;;;;;8.07;0.88;;;;;;;12.79;100.00;99455.88;7390628;19;20027;-82
2022/11/05 06:22:12;;;;;;;3.70;0.85;;;;;;;12.67;100.00;99459.06;7390829;19;20090;-83
2022/11/05 06:24:39;;;;;;;0.55;0.20;;;;;;;12.57;100.00;99457.75;7390840;19;20018;-82
2022/11/05 06:27:05;;;;;;;0.20;0.10;;;;;;;12.60;100.00;99448.38;7389084;19;20019;-82
2022/11/05 06:29:31;;;;;;;5.57;0.50;;;;;;;12.51;100.00;99462.53;7387923;19;20019;-82
2022/11/05 06:31:57;;;;;;;1.08;0.50;;;;;;;12.52;100.00;99461.28;7389064;19;20588;-82
2022/11/05 06:34:23;;;;;;;0.80;0.30;;;;;;;12.56;100.00;99456.25;7387855;19;20051;-82
2022/11/05 06:36:49;;;;;;;0.40;0.30;;;;;;;12.64;100.00;99460.09;7391001;19;20021;-82
2022/11/05 06:39:15;;;;;;;13.02;1.23;;;;;;;12.57;100.00;99454.97;7389496;19;20770;-82
2022/11/05 06:41:43;;;;;;;0.38;0.38;;;;;;;12.55;100.00;99452.69;7392939;19;20026;-83
2022/11/05 06:44:09;;;;;;;0.40;0.40;;;;;;;12.54;100.00;99447.59;7393904;19;20010;-82
2022/11/05 06:46:35;;;;;;;1.13;0.68;;;;;;;12.52;100.00;99447.31;7390537;19;20011;-82
2022/11/05 06:49:01;;;;;;;6.50;1.45;;;;;;;12.61;100.00;99445.09;7387499;19;20019;-82
2022/11/05 06:51:27;;;;;;;0.63;0.63;;;;;;;12.64;100.00;99448.91;7393096;19;20018;-82
2022/11/05 06:53:54;;;;;;;0.35;0.17;;;;;;;12.67;100.00;99447.91;7388952;19;20018;-83
2022/11/05 06:56:20;;;;;;;0.30;0.30;;;;;;;12.70;100.00;99453.28;7390440;19;20018;-83
2022/11/05 06:58:46;;;;;;;6.05;0.70;;;;;;;12.69;100.00;99450.97;7389793;19;20021;-82
2022/11/05 07:01:12;;;;;;;2.60;0.35;;;;;;;12.76;100.00;99454.06;7392043;19;20629;-84
2022/11/05 07:03:38;;;;;;;0.63;0.20;;;;;;;12.76;100.00;99450.50;7387686;19;20018;-82
2022/11/05 07:06:06;;;;;;;0.68;0.30;;;;;;;12.71;100.00;99452.00;7391398;19;20023;-83
2022/11/05 07:08:33;;;;;;;0.32;0.32;;;;;;;12.82;100.00;99437.34;7393648;19;20034;-82
2022/11/05 07:11:00;;;;;;;3.40;1.58;;;;;;;12.84;100.00;99443.94;7391255;19;20011;-83
2022/11/05 07:13:26;;;;;;;0.77;0.75;;;;;;;12.91;100.00;99439.91;7393420;19;20030;-83
2022/11/05 07:15:53;;;;;;;2.63;0.43;;;;;;;12.96;100.00;99436.38;7392644;19;20026;-83
2022/11/05 07:18:19;;;;;;;1.13;0.45;;;;;;;12.88;100.00;99424.91;7394186;19;20036;-83
2022/11/05 07:20:45;;;;;;;0.17;0.17;;;;;;;12.87;100.00;99431.00;7389980;19;20018;-83
2022/11/05 07:23:13;;;;;;;1.75;0.40;;;;;;;12.91;100.00;99428.72;7387959;19;20025;-83
2022/11/05 07:25:41;;;;;;;0.20;0.20;;;;;;;12.87;100.00;99428.97;7387290;19;20015;-83
2022/11/05 07:28:08;;;;;;;1.40;0.73;;;;;;;12.98;100.00;99427.47;7389395;19;20401;-82
2022/11/05 07:30:35;;;;;;;0.77;0.43;;;;;;;13.00;100.00;99422.91;7390044;19;20031;-84
2022/11/05 07:33:02;;;;;;;0.25;0.20;;;;;;;12.94;100.00;99416.53;7389624;19;20026;-83
2022/11/05 07:35:28;;;;;;;0.20;0.20;;;;;;;13.00;100.00;99420.13;7386440;19;20027;-83
2022/11/05 07:37:54;;;;;;;0.70;0.70;;;;;;;13.02;100.00;99412.00;7387431;19;20010;-83
2022/11/05 07:40:23;;;;;;;1.95;0.40;;;;;;;13.17;100.00;99418.16;7388342;19;20368;-83
2022/11/05 07:42:55;;;;;;;2.30;0.88;;;;;;;13.19;100.00;99403.72;7387289;19;20484;-83
2022/11/05 07:45:22;;;;;;;2.35;0.98;;;;;;;13.12;100.00;99407.75;7389719;19;20070;-82
2022/11/05 07:47:50;;;;;;;1.60;0.30;;;;;;;13.16;100.00;99404.69;7391371;19;20043;-83
2022/11/05 07:50:18;;;;;;;2.10;0.57;;;;;;;13.15;100.00;99391.97;7389585;19;20018;-82
2022/11/05 07:52:45;;;;;;;1.30;0.65;;;;;;;13.19;100.00;99376.47;7388118;19;20014;-83
2022/11/05 07:55:12;;;;;;;0.30;0.30;;;;;;;13.20;100.00;99378.03;7389020;19;20040;-83
2022/11/05 07:57:45;;;;;;;0.55;0.32;;;;;;;13.30;100.00;99370.91;7388658;19;20018;-83
2022/11/05 08:00:14;;;;;;;3.35;0.38;;;;;;;13.38;100.00;99382.38;7389386;19;20032;-82
2022/11/05 08:02:41;;;;;;;8.50;0.80;;;;;;;13.42;100.00;99378.06;7387833;19;20022;-83
2022/11/05 08:05:08;;;;;;;4.47;0.93;;;;;;;13.47;100.00;99368.91;7386459;19;20072;-83
2022/11/05 08:07:34;;;;;;;1.15;0.75;;;;;;;13.46;100.00;99369.41;7387788;19;20015;-83
2022/11/05 08:10:03;;;;;;;3.25;1.10;;;;;;;13.49;100.00;99374.00;7388334;19;20026;-83
2022/11/05 08:12:30;;;;;;;4.82;0.93;;;;;;;13.54;100.00;99370.44;7385611;19;20014;-83
2022/11/05 08:14:56;;;;;;;1.65;1.20;;;;;;;13.61;100.00;99375.53;7386639;19;20053;-82
2022/11/05 08:17:22;;;;;;;0.73;0.70;;;;;;;13.52;100.00;99373.75;7387214;19;20022;-82
2022/11/05 08:19:48;;;;;;;0.32;0.32;;;;;;;13.49;100.00;99377.56;7387094;19;20018;-82
2022/11/05 08:22:15;;;;;;;0.57;0.47;;;;;;;13.60;100.00;99376.78;7385635;19;20043;-82
2022/11/05 08:24:41;;;;;;;4.75;1.25;;;;;;;13.64;100.00;99377.34;7385391;19;20045;-83
2022/11/05 08:27:07;;;;;;;4.65;1.33;;;;;;;13.71;100.00;99381.66;7385291;19;20015;-83
2022/11/05 08:29:33;;;;;;;0.75;0.52;;;;;;;13.71;100.00;99360.00;7385986;19;20027;-82
2022/11/05 08:31:59;;;;;;;0.68;0.43;;;;;;;13.83;100.00;99360.78;7386084;19;20510;-81
2022/11/05 08:34:25;;;;;;;0.90;0.52;;;;;;;13.84;100.00;99365.13;7385029;19;20022;-81
2022/11/05 08:36:51;;;;;;;6.13;1.58;;;;;;;13.89;100.00;99361.53;7384046;19;20022;-82
2022/11/05 08:39:18;;;;;;;0.60;0.43;;;;;;;13.97;100.00;99354.16;7385589;19;20021;-83
2022/11/05 08:41:45;;;;;;;0.22;0.17;;;;;;;14.03;100.00;99346.53;7385053;19;20367;-83
2022/11/05 08:44:12;;;;;;;0.73;0.47;;;;;;;14.21;100.00;99332.72;7385783;19;20024;-81
2022/11/05 08:46:38;;;;;;;0.98;0.47;;;;;;;14.32;100.00;99329.94;7386055;19;20375;-81
2022/11/05 08:49:04;;;;;;;1.50;0.85;;;;;;;14.27;100.00;99327.13;7384537;19;20473;-82
2022/11/05 08:51:30;;;;;;;2.00;1.20;;;;;;;14.30;100.00;99323.31;7389904;19;20010;-82
2022/11/05 08:53:56;;;;;;;2.08;0.60;;;;;;;14.37;100.00;99300.38;7389383;19;20019;-84
2022/11/05 08:56:22;;;;;;;1.00;0.75;;;;;;;14.36;100.00;99312.84;7387138;19;20480;-81
2022/11/05 08:58:48;;;;;;;3.80;1.02;;;;;;;14.36;100.00;99315.63;7385895;19;20019;-83
2022/11/05 09:01:14;;;;;;;2.42;1.27;;;;;;;14.38;100.00;99315.88;7388611;19;20022;-81
2022/11/05 09:03:41;;;;;;;3.40;1.77;;;;;;;14.39;100.00;99311.81;7385936;19;20553;-81
2022/11/05 09:06:07;;;;;;;9.90;2.13;;;;;;;14.35;100.00;99302.94;7385108;19;20019;-82
2022/11/05 09:08:33;;;;;;;8.45;2.78;;;;;;;14.31;100.00;99294.78;7386001;19;20038;-84
2022/11/05 09:10:59;;;;;;;7.15;2.70;;;;;;;14.15;100.00;99297.59;7386016;19;20078;-84
2022/11/05 09:13:26;;;;;;;4.57;1.25;;;;;;;14.21;100.00;99301.16;7385005;19;20018;-83
2022/11/05 09:15:52;;;;;;;6.32;1.50;;;;;;;14.24;100.00;99295.28;7384898;19;20019;-83
2022/11/05 09:18:19;;;;;;;2.45;0.93;;;;;;;14.31;100.00;99291.97;7389327;19;20010;-84
2022/11/05 09:20:46;;;;;;;7.20;2.42;;;;;;;14.27;100.00;99291.44;7385140;19;20021;-83
2022/11/05 09:23:15;;;;;;;3.22;1.70;;;;;;;14.25;100.00;99279.25;7388694;19;20022;-83
2022/11/05 09:25:42;;;;;;;4.75;1.27;;;;;;;14.16;100.00;99277.47;7385557;19;20485;-82
2022/11/05 09:28:14;;;;;;;4.43;1.23;;;;;;;14.07;100.00;99263.78;7384656;19;20022;-81
2022/11/05 09:30:48;;;;;;;6.22;2.55;;;;;;;14.06;100.00;99267.09;7381735;19;20108;-82
2022/11/05 09:33:19;;;;;;;13.63;2.00;;;;;;;14.16;100.00;99290.75;7383017;19;20026;-81
2022/11/05 09:35:45;;;;;;;;;;;;;;;14.29;100.00;99265.78;7386468;19;20022;-82
2022/11/05 09:38:12;;;;;;;1.98;1.55;;;;;;;14.28;100.00;99261.41;7383311;19;19918;-81
2022/11/05 09:40:56;;;;;;;1.92;1.40;;;;;;;14.33;100.00;99263.47;7383025;19;20018;-82
2022/11/05 09:43:29;;;;;;;5.18;1.02;;;;;;;14.35;100.00;99261.69;7387577;19;20019;-82
2022/11/05 09:45:59;;;;;;;10.13;0.73;;;;;;;14.43;100.00;99261.88;7386269;19;20497;-81
2022/11/05 09:48:29;;;;;;;5.45;1.92;;;;;;;14.44;100.00;99263.41;7388369;19;20011;-82
2022/11/05 09:50:57;;;;;;;2.63;1.17;;;;;;;14.51;100.00;99259.31;7390571;19;20074;-82
2022/11/05 09:53:24;;;;;;;3.13;1.13;;;;;;;14.57;100.00;99255.22;7395909;19;20026;-82
2022/11/05 09:55:53;;;;;;;3.95;1.65;;;;;;;14.59;100.00;99254.69;7392084;19;20010;-82
2022/11/05 09:58:46;;;;;;;1.20;0.63;;;;;;;14.77;100.00;99251.28;7393919;19;20022;-82
2022/11/05 10:01:19;;;;;;;1.75;0.75;;;;;;;14.74;100.00;99239.06;7394119;19;20019;-82
2022/11/05 10:03:51;;;;;;;1.88;1.23;;;;;;;14.73;100.00;99243.13;7394034;19;20025;-83
2022/11/05 10:06:21;;;;;;;4.28;0.73;;;;;;;14.77;100.00;99240.81;7393883;19;20030;-82
2022/11/05 10:09:00;;;;;;;0.68;0.68;;;;;;;14.82;100.00;99240.00;7395174;19;20010;-81
2022/11/05 10:11:50;;;;;;;2.38;1.30;;;;;;;14.80;100.00;99236.97;7394518;19;20481;-82
2022/11/05 10:14:25;;;;;;;0.57;0.57;;;;;;;14.81;100.00;99232.13;7394411;19;20100;-82
2022/11/05 10:17:09;;;;;;;1.33;0.75;;;;;;;14.86;100.00;99222.91;7394277;19;20474;-82
2022/11/05 10:19:48;;;;;;;1.90;0.90;;;;;;;14.90;100.00;99215.75;7388501;19;20030;-83
2022/11/05 10:22:17;;;;;;;5.82;1.58;;;;;;;14.93;100.00;99213.94;7390060;19;20010;-83
2022/11/05 10:24:46;;;;;;;3.72;0.50;;;;;;;14.95;100.00;99205.78;7391947;19;20023;-84
2022/11/05 10:27:35;;;;;;;0.75;0.43;;;;;;;15.04;100.00;99203.41;7390385;19;20362;-82
2022/11/05 10:30:02;;;;;;;4.10;1.33;;;;;;;15.13;100.00;99199.50;7390010;19;20019;-83
2022/11/05 10:32:35;;;;;;;8.23;1.08;;;;;;;15.20;100.00;99182.88;7391395;19;20019;-82
2022/11/05 10:35:05;;;;;;;1.13;0.98;;;;;;;15.32;100.00;99177.16;7389485;19;20347;-84
2022/11/05 10:37:32;;;;;;;2.92;1.38;;;;;;;15.46;100.00;99193.63;7389912;19;20091;-83
2022/11/05 10:39:58;;;;;;;1.30;0.90;;;;;;;15.35;100.00;99187.34;7390308;19;20379;-83
2022/11/05 10:42:52;;;;;;;3.95;0.68;;;;;;;15.30;100.00;99188.13;7391801;19;20022;-84
2022/11/05 10:45:46;;;;;;;0.47;0.20;;;;;;;15.26;100.00;99180.03;7391063;19;20033;-87
2022/11/05 10:48:42;;;;;;;3.28;0.93;;;;;;;15.33;100.00;99181.50;7394318;19;20018;-83
2022/11/05 10:51:08;;;;;;;0.60;0.60;;;;;;;15.48;100.00;99179.84;7391592;19;20027;-83
2022/11/05 10:53:39;;;;;;;2.88;0.65;;;;;;;15.62;100.00;99180.69;7390397;19;20039;-83
2022/11/05 10:56:35;;;;;;;1.00;0.95;;;;;;;15.58;100.00;99177.44;7387005;19;20018;-83
2022/11/05 10:59:03;;;;;;;2.75;0.47;;;;;;;15.58;100.00;99183.03;7390689;19;20034;-83
2022/11/05 11:01:29;;;;;;;0.90;0.60;;;;;;;15.53;100.00;99181.81;7393668;19;20077;-82
2022/11/05 11:04:22;;;;;;;0.70;0.30;;;;;;;15.62;100.00;99166.66;7387958;19;20019;-81
2022/11/05 11:06:51;;;;;;;2.30;0.70;;;;;;;15.64;100.00;99176.09;7388077;19;20028;-82
2022/11/05 11:09:23;;;;;;;2.25;0.57;;;;;;;15.62;100.00;99169.47;7387206;19;20018;-82
2022/11/05 11:12:06;;;;;;;1.30;1.02;;;;;;;15.65;100.00;99160.00;7386759;19;20473;-82
2022/11/05 11:14:33;;;;;;;1.88;0.50;;;;;;;15.71;100.00;99144.63;7386601;19;20015;-82
2022/11/05 11:17:17;;;;;;;1.13;0.45;;;;;;;15.78;100.00;99140.47;7390402;19;20050;-81
2022/11/05 11:19:43;;;;;;;1.48;0.32;;;;;;;15.71;100.00;99150.25;7387476;19;20019;-82
2022/11/05 11:22:17;;;;;;;0.65;0.65;;;;;;;15.63;100.00;99151.38;7392434;19;20022;-83
2022/11/05 11:24:46;;;;;;;3.85;0.80;;;;;;;15.62;100.00;99139.38;7387374;19;20026;-83
2022/11/05 11:27:21;;;;;;;4.13;0.85;;;;;;;15.51;100.00;99139.47;7390550;19;20026;-83
2022/11/05 11:29:53;;;;;;;2.05;0.80;;;;;;;15.57;100.00;99142.25;7390437;19;20466;-83
2022/11/05 11:32:21;;;;;;;0.40;0.20;;;;;;;15.55;100.00;99147.63;7389386;19;20035;-82
2022/11/05 11:34:53;;;;;;;0.20;0.20;;;;;;;15.59;100.00;99136.88;7387638;19;20086;-83
2022/11/05 11:37:34;;;;;;;1.25;0.63;;;;;;;15.54;100.00;99132.06;7389895;19;20014;-81
2022/11/05 11:40:11;;;;;;;;;;;;;;;15.48;100.00;99132.13;7386464;19;21012;-80
2022/11/05 11:42:42;;;;;;;3.47;0.55;;;;;;;15.45;100.00;99126.81;7386622;19;19928;-80
2022/11/05 11:45:27;;;;;;;;;;;;;;;15.51;100.00;99127.50;7388244;19;20376;-82
2022/11/05 11:47:56;;;;;;;0.30;0.30;;;;;;;15.53;100.00;99130.53;7391345;19;19919;-83
2022/11/05 11:50:42;;;;;;;3.20;0.28;;;;;;;15.61;100.00;99120.25;7388546;19;20014;-83
2022/11/05 11:53:32;;;;;;;0.95;0.40;;;;;;;15.51;100.00;99121.88;7388668;19;20505;-83
2022/11/05 11:56:10;;;;;;;2.10;0.35;;;;;;;15.51;100.00;99108.63;7387156;19;20014;-83
2022/11/05 11:58:43;;;;;;;1.02;0.75;;;;;;;15.63;100.00;99112.06;7385893;19;20019;-84
2022/11/05 12:01:15;;;;;;;1.10;0.65;;;;;;;15.70;100.00;99108.66;7391809;19;20022;-81
2022/11/05 12:03:52;;;;;;;1.85;0.57;;;;;;;15.68;100.00;99114.06;7387782;19;20022;-81
2022/11/05 12:06:53;;;;;;;5.00;0.30;;;;;;;15.70;100.00;99105.88;7385405;19;20015;-81
2022/11/05 12:09:29;;;;;;;3.83;1.55;;;;;;;15.76;100.00;99096.09;7386998;19;20622;-81
2022/11/05 12:12:09;;;;;;;1.60;0.60;;;;;;;15.84;100.00;99096.22;7385665;19;20018;-82
2022/11/05 12:14:58;;;;;;;2.17;0.85;;;;;;;15.63;100.00;99084.00;7386659;19;20019;-82
2022/11/05 12:18:06;;;;;;;0.68;0.50;;;;;;;15.67;100.00;99084.44;7388831;19;20039;-86
2022/11/05 12:21:24;;;;;;;0.38;0.20;;;;;;;15.91;100.00;99075.97;7389976;19;20464;-85
2022/11/05 12:24:09;;;;;;;1.17;0.20;;;;;;;15.96;100.00;99069.50;7386125;19;20040;-82
2022/11/05 12:26:52;;;;;;;0.35;0.30;;;;;;;15.86;100.00;99077.56;7385077;19;20019;-82
2022/11/05 12:29:50;;;;;;;8.48;0.90;;;;;;;15.77;100.00;99085.59;7386767;19;20014;-83
2022/11/05 12:33:09;;;;;;;0.25;0.20;;;;;;;15.74;100.00;99061.41;7384995;19;20481;-88
2022/11/05 12:36:02;;;;;;;0.63;0.20;;;;;;;15.83;100.00;99058.22;7384331;19;20477;-83